Time;durP1;ratioP1;P1;durP2;ratioP2;P2;SDS_P1;SDS_P2;PMS_P1;PMS_P2;Temp;Humidity;BMP_temperature;BMP_pressure;BME280_temperature;BME280_humidity;BME280_pressure;Samples;Min_cycle;Max_cycle;Signal;HPM_P1;HPM_P2
2022/07/17 00:00:19;;;;;;;4.20;1.80;;;14.10;80.90;;;;;;5032006;28;20124;-43
2022/07/17 00:02:47;;;;;;;6.28;2.08;;;14.10;80.80;;;;;;5033132;28;20124;-43
2022/07/17 00:05:14;;;;;;;5.60;1.90;;;14.00;80.90;;;;;;5032099;28;20060;-43
2022/07/17 00:07:41;;;;;;;3.40;1.70;;;14.00;81.30;;;;;;5033213;28;20186;-43
2022/07/17 00:10:08;;;;;;;4.32;2.00;;;13.90;81.50;;;;;;5031724;28;20473;-43
2022/07/17 00:12:36;;;;;;;9.73;2.42;;;13.90;82.30;;;;;;5030597;28;20084;-43
2022/07/17 00:15:04;;;;;;;7.15;2.00;;;13.80;82.60;;;;;;5031017;28;20089;-42
2022/07/17 00:17:31;;;;;;;6.70;1.90;;;13.80;82.50;;;;;;5030143;28;20493;-43
2022/07/17 00:19:57;;;;;;;2.97;1.77;;;13.70;82.30;;;;;;5031029;28;20088;-43
2022/07/17 00:22:24;;;;;;;5.22;2.00;;;13.70;82.60;;;;;;5031876;28;20132;-42
2022/07/17 00:24:51;;;;;;;6.05;1.90;;;13.70;82.40;;;;;;5032308;28;20053;-43
2022/07/17 00:27:17;;;;;;;4.63;1.88;;;13.70;82.70;;;;;;5031469;28;20132;-42
2022/07/17 00:29:47;;;;;;;5.32;2.00;;;13.60;82.40;;;;;;5033057;28;20046;-42
2022/07/17 00:32:13;;;;;;;3.95;2.30;;;13.70;83.00;;;;;;5032740;28;20052;-43
2022/07/17 00:34:40;;;;;;;6.60;1.98;;;13.60;83.20;;;;;;5032851;28;20137;-43
2022/07/17 00:37:07;;;;;;;6.20;2.10;;;13.60;83.40;;;;;;5033147;28;20049;-43
2022/07/17 00:39:34;;;;;;;6.18;2.33;;;13.60;84.00;;;;;;5033062;28;20450;-43
2022/07/17 00:42:01;;;;;;;5.70;1.90;;;13.60;83.90;;;;;;5032141;28;20497;-43
2022/07/17 00:44:28;;;;;;;3.42;1.70;;;13.50;83.90;;;;;;5031848;28;20132;-43
2022/07/17 00:46:56;;;;;;;5.13;1.90;;;13.50;84.00;;;;;;5031904;28;20061;-43
2022/07/17 00:49:22;;;;;;;6.88;2.10;;;13.50;84.10;;;;;;5032562;28;20387;-42
2022/07/17 00:51:49;;;;;;;6.85;2.42;;;13.40;84.20;;;;;;5031844;28;20049;-42
2022/07/17 00:54:16;;;;;;;5.65;1.98;;;13.40;84.40;;;;;;5032757;28;20049;-43
2022/07/17 00:56:43;;;;;;;3.33;1.75;;;13.40;84.10;;;;;;5031343;28;20091;-43
2022/07/17 00:59:10;;;;;;;5.82;2.40;;;13.30;84.30;;;;;;5030829;28;20057;-43
2022/07/17 01:01:36;;;;;;;5.95;1.95;;;13.30;84.80;;;;;;5030818;28;20120;-43
2022/07/17 01:04:05;;;;;;;3.83;1.75;;;13.30;85.20;;;;;;5029490;28;20124;-43
2022/07/17 01:06:31;;;;;;;3.97;1.50;;;13.20;85.10;;;;;;5030957;28;20145;-43
2022/07/17 01:08:58;;;;;;;4.03;1.95;;;13.20;84.80;;;;;;5031605;28;20073;-42
2022/07/17 01:11:25;;;;;;;3.47;1.42;;;13.20;85.30;;;;;;5030010;28;20081;-43
2022/07/17 01:13:52;;;;;;;3.85;2.15;;;13.10;85.20;;;;;;5030282;28;20401;-43
2022/07/17 01:16:18;;;;;;;4.25;1.95;;;13.20;86.30;;;;;;5029629;28;20077;-43
2022/07/17 01:18:45;;;;;;;4.03;2.10;;;13.10;85.60;;;;;;5030802;28;20140;-43
2022/07/17 01:21:13;;;;;;;4.35;1.90;;;13.10;85.50;;;;;;5030151;28;20049;-43
2022/07/17 01:23:40;;;;;;;5.32;2.03;;;13.10;85.60;;;;;;5032853;28;20060;-43
2022/07/17 01:26:07;;;;;;;3.42;1.85;;;13.00;85.70;;;;;;5029138;28;20068;-43
2022/07/17 01:28:33;;;;;;;3.33;1.73;;;13.00;86.10;;;;;;5027439;28;20457;-42
2022/07/17 01:31:02;;;;;;;6.75;1.92;;;13.00;86.40;;;;;;5029608;28;20045;-43
2022/07/17 01:33:29;;;;;;;4.15;2.03;;;13.00;86.40;;;;;;5031926;28;20045;-42
2022/07/17 01:35:56;;;;;;;6.32;2.05;;;13.00;86.70;;;;;;5031173;28;20086;-43
2022/07/17 01:38:24;;;;;;;4.80;1.73;;;12.90;86.80;;;;;;5031856;28;20132;-43
2022/07/17 01:40:51;;;;;;;4.30;1.70;;;12.90;86.80;;;;;;5031299;28;20081;-42
2022/07/17 01:43:18;;;;;;;4.32;1.90;;;12.90;86.80;;;;;;5029884;28;20110;-42
2022/07/17 01:45:44;;;;;;;3.53;1.77;;;12.90;87.80;;;;;;5030470;28;20421;-43
2022/07/17 01:48:11;;;;;;;8.63;2.20;;;12.80;88.20;;;;;;5030825;28;20463;-43
2022/07/17 01:50:38;;;;;;;3.38;1.60;;;12.80;88.70;;;;;;5029193;28;20144;-43
2022/07/17 01:53:05;;;;;;;5.45;2.28;;;12.80;88.90;;;;;;5028521;28;20140;-43
2022/07/17 01:55:33;;;;;;;5.55;1.92;;;12.70;89.10;;;;;;5025696;28;20136;-43
2022/07/17 01:58:00;;;;;;;2.22;1.50;;;12.70;89.30;;;;;;5026772;28;20053;-43
2022/07/17 02:00:26;;;;;;;4.45;1.70;;;12.70;89.20;;;;;;5029640;28;20077;-43
2022/07/17 02:02:53;;;;;;;5.03;1.95;;;12.70;89.40;;;;;;5027107;28;20077;-42
2022/07/17 02:05:20;;;;;;;4.43;2.05;;;12.60;89.70;;;;;;5029807;28;20124;-42
2022/07/17 02:07:47;;;;;;;2.17;1.55;;;12.60;90.00;;;;;;5031724;28;20129;-43
2022/07/17 02:10:14;;;;;;;5.90;1.80;;;12.60;90.10;;;;;;5030494;28;20084;-42
2022/07/17 02:12:43;;;;;;;3.42;1.90;;;12.60;90.50;;;;;;5031275;28;20049;-42
2022/07/17 02:15:10;;;;;;;5.55;1.70;;;12.50;90.90;;;;;;5029857;28;20451;-42
2022/07/17 02:17:37;;;;;;;4.45;1.85;;;12.50;91.10;;;;;;5031722;28;20080;-42
2022/07/17 02:20:04;;;;;;;3.80;1.65;;;12.50;90.80;;;;;;5031705;28;20049;-42
2022/07/17 02:22:31;;;;;;;5.90;1.98;;;12.40;90.80;;;;;;5031877;28;20049;-43
2022/07/17 02:24:58;;;;;;;5.20;2.28;;;12.50;90.80;;;;;;5029950;28;20053;-43
2022/07/17 02:27:24;;;;;;;4.75;2.00;;;12.40;90.90;;;;;;5031595;28;20107;-43
2022/07/17 02:29:53;;;;;;;5.03;2.00;;;12.40;91.10;;;;;;5031367;28;20137;-43
2022/07/17 02:32:19;;;;;;;3.50;1.90;;;12.40;91.40;;;;;;5030652;28;20136;-43
2022/07/17 02:34:46;;;;;;;4.53;2.33;;;12.40;91.40;;;;;;5030529;28;20056;-43
2022/07/17 02:37:13;;;;;;;5.50;2.47;;;12.40;91.70;;;;;;5031085;28;20128;-43
2022/07/17 02:39:52;;;;;;;3.58;1.88;;;12.40;92.20;;;;;;5030455;28;20513;-42
2022/07/17 02:42:19;;;;;;;4.45;2.15;;;12.40;91.90;;;;;;5030640;28;20396;-42
2022/07/17 02:44:46;;;;;;;5.13;2.40;;;12.30;91.90;;;;;;5030211;28;20137;-42
2022/07/17 02:47:14;;;;;;;6.55;2.40;;;12.30;91.90;;;;;;5028992;28;20045;-43
2022/07/17 02:49:41;;;;;;;5.28;2.20;;;12.30;92.10;;;;;;5030009;28;20136;-43
2022/07/17 02:52:08;;;;;;;5.28;2.00;;;12.30;91.90;;;;;;5030545;28;20042;-43
2022/07/17 02:54:34;;;;;;;4.60;2.10;;;12.30;91.90;;;;;;5029648;28;20133;-43
2022/07/17 02:57:01;;;;;;;6.93;2.10;;;12.30;92.20;;;;;;5029785;28;20135;-43
2022/07/17 02:59:28;;;;;;;5.55;2.53;;;12.30;91.80;;;;;;5029819;28;20080;-43
2022/07/17 03:01:55;;;;;;;4.10;2.20;;;12.30;92.00;;;;;;5032961;28;20449;-43
2022/07/17 03:04:23;;;;;;;6.03;2.13;;;12.30;91.80;;;;;;5033646;28;20478;-43
2022/07/17 03:06:49;;;;;;;5.93;2.40;;;12.20;91.70;;;;;;5033898;28;20366;-43
2022/07/17 03:09:16;;;;;;;7.35;1.98;;;12.10;91.70;;;;;;5032450;28;20044;-42
2022/07/17 03:11:43;;;;;;;3.78;2.25;;;12.20;91.80;;;;;;5033600;28;20505;-42
2022/07/17 03:14:10;;;;;;;4.65;2.33;;;12.20;92.00;;;;;;5032117;28;20049;-42
2022/07/17 03:16:37;;;;;;;6.63;2.33;;;12.20;92.10;;;;;;5034349;28;20089;-42
2022/07/17 03:19:04;;;;;;;7.57;2.03;;;12.10;92.20;;;;;;5033077;28;20081;-42
2022/07/17 03:21:32;;;;;;;5.47;2.03;;;12.10;92.00;;;;;;5032060;28;20057;-42
2022/07/17 03:23:58;;;;;;;4.35;2.03;;;12.10;92.40;;;;;;5031648;28;20120;-42
2022/07/17 03:26:25;;;;;;;4.10;2.17;;;12.10;92.50;;;;;;5033149;28;20042;-43
2022/07/17 03:28:52;;;;;;;3.95;2.22;;;12.00;92.70;;;;;;5034245;28;20088;-42
2022/07/17 03:31:19;;;;;;;7.40;2.60;;;12.00;92.90;;;;;;5032375;28;20137;-43
2022/07/17 03:33:45;;;;;;;5.13;2.50;;;12.00;92.80;;;;;;5033357;28;20092;-42
2022/07/17 03:36:12;;;;;;;3.55;2.10;;;12.00;93.00;;;;;;5032033;28;20132;-42
2022/07/17 03:38:40;;;;;;;3.92;1.95;;;11.90;93.00;;;;;;5031813;28;20470;-42
2022/07/17 03:41:07;;;;;;;5.18;2.60;;;11.90;92.90;;;;;;5033640;28;20046;-42
2022/07/17 03:43:33;;;;;;;5.70;2.58;;;11.90;92.80;;;;;;5029664;28;20081;-43
2022/07/17 03:46:00;;;;;;;3.67;1.98;;;11.90;93.10;;;;;;5020102;28;21347;-42
2022/07/17 03:48:27;;;;;;;5.88;2.40;;;11.90;93.00;;;;;;5033522;28;20133;-42
2022/07/17 03:50:54;;;;;;;5.63;2.25;;;11.90;93.10;;;;;;5032003;28;20081;-42
2022/07/17 03:53:20;;;;;;;4.70;2.30;;;11.90;93.30;;;;;;5033750;28;20479;-42
2022/07/17 03:55:48;;;;;;;8.02;3.17;;;11.80;93.30;;;;;;5031506;28;20158;-43
2022/07/17 03:58:15;;;;;;;3.38;1.70;;;11.80;93.40;;;;;;5033481;28;20077;-42
2022/07/17 04:00:42;;;;;;;6.32;2.53;;;11.80;93.40;;;;;;5029230;28;20049;-42
2022/07/17 04:03:09;;;;;;;2.83;1.80;;;11.80;93.40;;;;;;5031884;28;20144;-42
2022/07/17 04:05:36;;;;;;;5.00;2.25;;;11.80;93.50;;;;;;5033419;28;20124;-42
2022/07/17 04:08:02;;;;;;;7.25;2.20;;;11.80;93.40;;;;;;5033455;28;20140;-42
2022/07/17 04:10:29;;;;;;;3.60;2.50;;;11.90;93.80;;;;;;5032804;28;20045;-43
2022/07/17 04:12:57;;;;;;;4.20;2.50;;;11.90;93.80;;;;;;5030683;28;20138;-42
2022/07/17 04:18:09;;;;;;;5.90;2.20;;;11.90;93.80;;;;;;5033855;28;20045;-42
2022/07/17 04:20:35;;;;;;;5.97;1.92;;;11.90;93.90;;;;;;5031181;28;20144;-43
2022/07/17 04:23:02;;;;;;;8.38;2.05;;;12.00;94.10;;;;;;5033465;28;20081;-43
2022/07/17 04:25:29;;;;;;;4.40;2.63;;;12.00;94.10;;;;;;5031956;28;20053;-43
2022/07/17 04:27:57;;;;;;;4.45;2.35;;;12.00;94.10;;;;;;5032998;28;20565;-43
2022/07/17 04:30:24;;;;;;;7.15;2.50;;;12.10;94.50;;;;;;5032394;28;20145;-43
2022/07/17 04:32:51;;;;;;;8.18;2.22;;;12.10;94.70;;;;;;5032673;28;20470;-43
2022/07/17 04:35:18;;;;;;;6.45;2.55;;;12.20;94.70;;;;;;5031323;28;20050;-43
2022/07/17 04:37:44;;;;;;;6.22;2.45;;;12.20;94.80;;;;;;5033102;28;20045;-43
2022/07/17 04:40:12;;;;;;;7.22;3.58;;;12.20;94.90;;;;;;5032518;28;20064;-42
2022/07/17 04:42:39;;;;;;;4.80;2.30;;;12.30;95.30;;;;;;5032586;28;20405;-42
2022/07/17 04:45:08;;;;;;;5.57;2.17;;;12.30;95.10;;;;;;5031027;28;20523;-42
2022/07/17 04:47:35;;;;;;;7.63;2.08;;;12.40;95.20;;;;;;5032252;28;20485;-42
2022/07/17 04:50:02;;;;;;;6.22;2.20;;;12.40;94.90;;;;;;5029860;28;20460;-43
2022/07/17 04:52:29;;;;;;;4.05;2.22;;;12.50;94.70;;;;;;5032163;28;20081;-43
2022/07/17 04:54:55;;;;;;;8.23;2.60;;;12.50;94.90;;;;;;5030886;28;20180;-42
2022/07/17 04:57:22;;;;;;;7.63;2.05;;;12.60;95.30;;;;;;5031073;28;20088;-42
2022/07/17 04:59:49;;;;;;;3.40;1.77;;;12.60;95.20;;;;;;5029420;28;20042;-43
2022/07/17 05:02:17;;;;;;;5.95;2.53;;;12.70;95.00;;;;;;5032127;28;20059;-43
2022/07/17 05:04:44;;;;;;;4.82;2.22;;;12.70;95.40;;;;;;5029726;28;20145;-43
2022/07/17 05:07:10;;;;;;;7.97;2.22;;;12.80;95.60;;;;;;5031854;28;20080;-43
2022/07/17 05:09:37;;;;;;;8.15;2.67;;;12.80;95.80;;;;;;5031683;28;20049;-42
2022/07/17 05:12:04;;;;;;;9.20;2.60;;;12.90;96.00;;;;;;5031632;28;20156;-42
2022/07/17 05:14:31;;;;;;;4.68;2.00;;;12.90;96.10;;;;;;5030244;28;20085;-43
2022/07/17 05:16:58;;;;;;;5.32;2.08;;;13.00;95.80;;;;;;5028902;28;21313;-42
2022/07/17 05:19:26;;;;;;;6.15;2.30;;;13.10;95.80;;;;;;5030519;28;20435;-42
2022/07/17 05:21:53;;;;;;;7.15;2.10;;;13.10;96.20;;;;;;5031604;28;20378;-42
2022/07/17 05:24:19;;;;;;;6.00;2.00;;;13.20;96.60;;;;;;5030279;28;20478;-42
2022/07/17 05:26:46;;;;;;;9.75;2.55;;;13.20;96.20;;;;;;5028908;28;20511;-43
2022/07/17 05:29:13;;;;;;;5.95;2.30;;;13.30;96.70;;;;;;5030567;28;20494;-43
2022/07/17 05:31:40;;;;;;;4.40;2.10;;;13.30;96.50;;;;;;5025925;28;20567;-42
2022/07/17 05:34:06;;;;;;;9.48;2.47;;;13.40;96.50;;;;;;5029815;28;20051;-42
2022/07/17 05:36:34;;;;;;;7.80;2.80;;;13.50;96.60;;;;;;5030669;28;20386;-42
2022/07/17 05:39:01;;;;;;;10.95;2.90;;;13.50;96.70;;;;;;5031102;28;20096;-43
2022/07/17 05:41:28;;;;;;;5.93;2.20;;;13.60;96.80;;;;;;5030351;28;20059;-43
2022/07/17 05:43:55;;;;;;;8.13;1.95;;;13.60;96.60;;;;;;5030717;28;20137;-43
2022/07/17 05:46:21;;;;;;;6.15;1.80;;;13.70;96.40;;;;;;5029091;28;20058;-44
2022/07/17 05:48:48;;;;;;;11.68;2.47;;;13.90;96.40;;;;;;5028484;28;20084;-43
2022/07/17 05:51:15;;;;;;;8.98;1.73;;;13.80;96.40;;;;;;5030208;28;20124;-43
2022/07/17 05:53:43;;;;;;;6.70;1.77;;;13.90;96.70;;;;;;5029879;28;20060;-43
2022/07/17 05:56:10;;;;;;;4.47;1.45;;;13.90;96.60;;;;;;5029988;28;20042;-42
2022/07/17 05:58:36;;;;;;;7.30;1.70;;;14.00;96.40;;;;;;5028603;28;20045;-42
2022/07/17 06:01:03;;;;;;;5.63;1.50;;;14.10;96.40;;;;;;5029254;28;20128;-42
2022/07/17 06:03:30;;;;;;;7.97;1.75;;;14.20;96.50;;;;;;5031662;28;20049;-42
2022/07/17 06:05:57;;;;;;;6.93;1.83;;;14.20;96.60;;;;;;5029558;28;20162;-42
2022/07/17 06:08:23;;;;;;;9.15;1.90;;;14.30;96.20;;;;;;5029652;28;20505;-42
2022/07/17 06:10:51;;;;;;;8.38;1.90;;;14.40;96.20;;;;;;5031380;28;20465;-42
2022/07/17 06:13:18;;;;;;;4.32;1.50;;;14.40;96.20;;;;;;5027853;28;20476;-43
2022/07/17 06:15:45;;;;;;;9.60;2.13;;;14.50;96.20;;;;;;5028848;28;20056;-42
2022/07/17 06:18:12;;;;;;;6.35;1.83;;;14.50;96.10;;;;;;5031066;28;20057;-43
2022/07/17 06:20:39;;;;;;;4.25;1.70;;;14.60;96.40;;;;;;5030271;28;20152;-42
2022/07/17 06:23:06;;;;;;;9.15;2.00;;;14.80;96.50;;;;;;5030139;28;20127;-42
2022/07/17 06:25:32;;;;;;;7.35;1.58;;;14.90;96.60;;;;;;5029776;28;20072;-43
2022/07/17 06:28:00;;;;;;;10.48;2.47;;;15.00;96.70;;;;;;5030446;28;20400;-43
2022/07/17 06:30:27;;;;;;;6.28;1.63;;;15.20;96.70;;;;;;5028219;28;20396;-42
2022/07/17 06:32:54;;;;;;;6.75;1.70;;;15.30;96.30;;;;;;5030464;28;20485;-42
2022/07/17 06:35:21;;;;;;;9.55;1.48;;;15.50;96.00;;;;;;5029075;28;20065;-43
2022/07/17 06:37:47;;;;;;;8.02;1.75;;;15.60;95.80;;;;;;5036082;28;20049;-42
2022/07/17 06:40:14;;;;;;;4.97;1.35;;;15.80;95.60;;;;;;5030718;28;20103;-42
2022/07/17 06:42:41;;;;;;;6.53;1.77;;;15.90;95.30;;;;;;5015083;28;20129;-43
2022/07/17 06:45:10;;;;;;;4.25;1.27;;;16.00;95.10;;;;;;5028441;28;20549;-43
2022/07/17 06:47:38;;;;;;;7.75;1.52;;;16.10;94.70;;;;;;5033913;28;20915;-44
2022/07/17 06:50:06;;;;;;;10.25;1.73;;;16.20;94.40;;;;;;5034009;28;20132;-43
2022/07/17 06:52:32;;;;;;;4.38;1.15;;;16.30;94.20;;;;;;5032371;28;20134;-43
2022/07/17 06:54:59;;;;;;;8.50;1.58;;;16.40;94.00;;;;;;5033431;28;20119;-43
2022/07/17 06:57:26;;;;;;;5.85;1.23;;;16.50;94.00;;;;;;5032425;28;20049;-43
2022/07/17 06:59:53;;;;;;;9.00;1.13;;;16.60;93.40;;;;;;5033388;28;20057;-43
2022/07/17 07:02:21;;;;;;;5.38;1.33;;;16.80;93.30;;;;;;5032027;28;20469;-43
2022/07/17 07:04:47;;;;;;;12.25;1.60;;;16.90;92.60;;;;;;5034905;28;20125;-42
2022/07/17 07:07:14;;;;;;;10.35;1.90;;;17.10;92.40;;;;;;5034504;28;20052;-43
2022/07/17 07:09:41;;;;;;;6.10;1.65;;;17.20;92.20;;;;;;5031807;28;20132;-43
2022/07/17 07:12:08;;;;;;;8.23;1.30;;;17.40;91.90;;;;;;5033659;28;20087;-42
2022/07/17 07:14:35;;;;;;;9.45;1.42;;;17.60;91.40;;;;;;5029093;28;20076;-43
2022/07/17 07:17:02;;;;;;;5.97;1.35;;;17.70;91.10;;;;;;5033049;28;20053;-42
2022/07/17 07:19:30;;;;;;;8.25;1.55;;;17.90;91.00;;;;;;5033762;28;20069;-43
2022/07/17 07:21:57;;;;;;;9.02;1.80;;;18.10;90.90;;;;;;5032409;28;20645;-44
2022/07/17 07:24:23;;;;;;;7.53;1.17;;;18.20;90.70;;;;;;5034034;28;20577;-43
2022/07/17 07:26:50;;;;;;;9.52;1.65;;;18.40;90.00;;;;;;5034082;28;20401;-43
2022/07/17 07:29:17;;;;;;;8.73;1.67;;;18.50;89.60;;;;;;5025807;28;20089;-43
2022/07/17 07:31:44;;;;;;;5.53;1.45;;;18.60;88.90;;;;;;5027978;28;20092;-43
2022/07/17 07:34:10;;;;;;;7.60;1.50;;;18.70;88.20;;;;;;5029495;28;20156;-43
2022/07/17 07:36:38;;;;;;;6.75;1.17;;;18.70;87.70;;;;;;5033080;28;20132;-43
2022/07/17 07:39:05;;;;;;;5.45;1.10;;;18.80;87.20;;;;;;5025025;28;20053;-43
2022/07/17 07:41:32;;;;;;;6.03;1.30;;;18.90;87.30;;;;;;5028274;28;20132;-43
2022/07/17 07:43:59;;;;;;;6.25;1.15;;;19.00;86.70;;;;;;5033348;28;20049;-43
2022/07/17 07:46:26;;;;;;;11.60;1.30;;;19.10;86.50;;;;;;5027112;28;20112;-44
2022/07/17 07:48:52;;;;;;;6.03;1.05;;;19.20;86.30;;;;;;5030493;28;20057;-43
2022/07/17 07:51:19;;;;;;;7.68;1.33;;;19.30;85.90;;;;;;5031453;28;20581;-43
2022/07/17 07:53:47;;;;;;;4.78;0.90;;;19.40;85.80;;;;;;5032608;28;20080;-43
2022/07/17 07:56:14;;;;;;;6.40;1.23;;;19.40;85.50;;;;;;5032733;28;20502;-44
2022/07/17 07:58:41;;;;;;;5.35;1.17;;;19.40;85.00;;;;;;5032900;28;20061;-43
2022/07/17 08:01:08;;;;;;;8.25;1.42;;;19.40;84.70;;;;;;5030893;28;20093;-43
2022/07/17 08:03:34;;;;;;;12.38;1.20;;;19.60;84.50;;;;;;5032506;28;20054;-42
2022/07/17 08:06:01;;;;;;;5.47;0.95;;;19.70;84.30;;;;;;5031343;28;20046;-43
2022/07/17 08:08:28;;;;;;;10.27;1.30;;;20.00;83.60;;;;;;5032118;28;20061;-44
2022/07/17 08:10:56;;;;;;;4.05;1.27;;;20.20;82.50;;;;;;5033310;28;20124;-44
2022/07/17 08:13:23;;;;;;;5.00;1.20;;;20.30;81.40;;;;;;5028916;28;20572;-43
2022/07/17 08:15:49;;;;;;;5.47;1.17;;;20.40;80.60;;;;;;5028777;28;20055;-43
2022/07/17 08:18:16;;;;;;;4.30;0.85;;;20.60;80.10;;;;;;5032406;28;20056;-42
2022/07/17 08:20:43;;;;;;;6.85;2.03;;;20.70;79.50;;;;;;5030321;28;20129;-43
2022/07/17 08:23:10;;;;;;;7.22;0.98;;;20.80;78.50;;;;;;5031172;28;20144;-43
2022/07/17 08:25:36;;;;;;;3.83;1.08;;;20.90;77.70;;;;;;5029959;28;20055;-43
2022/07/17 08:28:05;;;;;;;4.55;1.13;;;21.00;77.50;;;;;;5029743;28;20041;-43
2022/07/17 08:30:34;;;;;;;7.13;1.15;;;21.10;77.50;;;;;;5029937;28;20119;-44
2022/07/17 08:33:01;;;;;;;5.95;1.00;;;21.30;77.20;;;;;;5029848;28;20053;-44
2022/07/17 08:35:28;;;;;;;5.95;1.20;;;21.40;76.90;;;;;;5032250;28;20545;-44
2022/07/17 08:37:55;;;;;;;3.17;0.77;;;21.50;76.70;;;;;;5032028;28;20045;-43
2022/07/17 08:40:23;;;;;;;4.18;1.02;;;21.70;77.00;;;;;;5032128;28;20052;-42
2022/07/17 08:42:50;;;;;;;8.95;1.67;;;21.80;75.20;;;;;;5030945;28;20107;-42
2022/07/17 08:45:18;;;;;;;8.23;1.45;;;21.80;74.50;;;;;;5030733;28;20145;-42
2022/07/17 08:47:45;;;;;;;7.20;1.15;;;21.80;73.70;;;;;;5029905;28;20159;-43
2022/07/17 08:50:12;;;;;;;9.00;1.85;;;21.70;73.70;;;;;;5030401;28;20569;-43
2022/07/17 08:52:39;;;;;;;7.55;1.50;;;21.70;72.70;;;;;;5031466;28;20584;-43
2022/07/17 08:55:09;;;;;;;6.63;1.27;;;21.70;73.40;;;;;;5027984;28;20490;-43
2022/07/17 08:57:38;;;;;;;5.95;1.27;;;21.80;73.60;;;;;;5028943;28;20048;-43
2022/07/17 09:00:05;;;;;;;6.13;1.27;;;21.90;73.50;;;;;;5028913;28;20084;-43
2022/07/17 09:02:35;;;;;;;4.10;0.90;;;22.00;73.70;;;;;;5031116;28;20128;-43
2022/07/17 09:05:02;;;;;;;8.00;1.20;;;22.30;73.40;;;;;;5030687;28;20049;-43
2022/07/17 09:07:30;;;;;;;3.63;1.10;;;22.40;73.10;;;;;;5029107;28;20049;-43
2022/07/17 09:09:57;;;;;;;4.07;1.08;;;22.60;72.90;;;;;;5030256;28;20060;-44
2022/07/17 09:12:26;;;;;;;4.25;1.10;;;22.80;72.20;;;;;;5030210;28;20085;-44
2022/07/17 09:14:53;;;;;;;5.43;0.98;;;22.90;71.70;;;;;;5030101;28;20049;-43
2022/07/17 09:17:20;;;;;;;6.10;1.27;;;23.10;71.20;;;;;;5030339;28;20164;-43
2022/07/17 09:19:48;;;;;;;5.05;1.00;;;23.10;70.70;;;;;;5026167;28;20088;-43
2022/07/17 09:22:16;;;;;;;4.90;1.17;;;23.30;71.20;;;;;;5029397;28;20053;-44
2022/07/17 09:24:45;;;;;;;6.30;1.25;;;23.40;70.80;;;;;;5029352;28;20560;-43
2022/07/17 09:27:13;;;;;;;7.35;1.30;;;23.60;69.60;;;;;;5028683;28;20056;-43
2022/07/17 09:29:51;;;;;;;4.75;1.05;;;23.70;68.70;;;;;;5028962;28;20057;-43
2022/07/17 09:32:18;;;;;;;3.90;1.00;;;23.80;69.40;;;;;;5030302;28;20045;-44
2022/07/17 09:34:46;;;;;;;5.70;0.95;;;23.90;68.50;;;;;;5029372;28;20239;-45
2022/07/17 09:37:14;;;;;;;4.55;0.95;;;23.90;67.50;;;;;;5029671;28;20076;-43
2022/07/17 09:39:41;;;;;;;6.35;1.30;;;24.00;68.50;;;;;;5028461;28;20391;-43
2022/07/17 09:42:08;;;;;;;5.78;1.35;;;24.10;67.20;;;;;;5029141;28;20097;-43
2022/07/17 09:44:35;;;;;;;7.72;1.45;;;24.10;67.20;;;;;;5030732;28;20410;-43
2022/07/17 09:47:02;;;;;;;6.05;1.10;;;24.20;67.70;;;;;;5027587;28;20112;-45
2022/07/17 09:49:29;;;;;;;5.65;1.35;;;24.40;67.30;;;;;;5030055;28;20075;-43
2022/07/17 09:51:56;;;;;;;4.47;1.10;;;24.50;66.30;;;;;;5027241;28;20081;-43
2022/07/17 09:54:24;;;;;;;4.07;1.15;;;24.50;66.00;;;;;;5012491;28;20495;-43
2022/07/17 09:56:51;;;;;;;4.38;1.10;;;24.60;66.40;;;;;;5020745;28;20145;-42
2022/07/17 09:59:18;;;;;;;6.32;1.20;;;24.90;65.60;;;;;;5026755;28;20498;-43
2022/07/17 10:01:48;;;;;;;3.28;1.20;;;25.00;65.70;;;;;;5029588;28;20133;-43
2022/07/17 10:04:16;;;;;;;4.20;1.48;;;25.10;65.70;;;;;;5040980;28;20053;-43
2022/07/17 10:06:42;;;;;;;5.63;1.23;;;25.20;64.40;;;;;;5029370;28;20460;-42
2022/07/17 10:09:09;;;;;;;5.35;1.40;;;25.20;64.70;;;;;;5029247;28;20460;-43
2022/07/17 10:11:38;;;;;;;6.55;1.40;;;25.30;62.80;;;;;;5030015;28;20080;-43
2022/07/17 10:14:06;;;;;;;4.15;1.20;;;25.40;62.60;;;;;;5034277;28;20099;-43
2022/07/17 10:16:33;;;;;;;5.03;1.38;;;25.30;61.90;;;;;;5035455;28;20184;-43
2022/07/17 10:19:02;;;;;;;4.68;1.20;;;25.30;62.70;;;;;;5034342;28;20064;-43
2022/07/17 10:21:30;;;;;;;3.50;1.10;;;25.40;63.00;;;;;;5031788;28;20053;-43
2022/07/17 10:24:10;;;;;;;5.82;1.75;;;25.60;63.30;;;;;;5032773;28;20065;-43
2022/07/17 10:26:43;;;;;;;5.80;1.40;;;25.90;63.30;;;;;;5033869;28;20049;-43
2022/07/17 10:29:25;;;;;;;8.10;1.30;;;26.10;62.40;;;;;;5033881;28;20409;-43
2022/07/17 10:31:52;;;;;;;3.35;1.27;;;26.10;60.90;;;;;;5033466;28;20124;-43
2022/07/17 10:34:19;;;;;;;3.40;1.27;;;26.10;61.80;;;;;;5033292;28;20115;-43
2022/07/17 10:36:46;;;;;;;4.32;1.13;;;26.20;61.70;;;;;;5034343;28;20045;-43
2022/07/17 10:39:16;;;;;;;5.40;1.38;;;26.30;61.30;;;;;;5032665;28;20042;-44
2022/07/17 10:41:57;;;;;;;5.10;1.77;;;26.50;61.10;;;;;;5033180;28;20045;-44
2022/07/17 10:44:27;;;;;;;3.20;1.23;;;26.80;61.00;;;;;;5033440;28;20053;-44
2022/07/17 10:46:54;;;;;;;3.75;1.23;;;26.90;59.90;;;;;;5032916;28;20111;-43
2022/07/17 10:49:21;;;;;;;3.90;1.30;;;26.90;60.20;;;;;;5033248;28;20136;-43
2022/07/17 10:51:48;;;;;;;3.22;1.10;;;27.00;59.00;;;;;;5034381;28;20076;-44
2022/07/17 10:54:14;;;;;;;5.00;1.10;;;27.20;58.80;;;;;;5035238;28;20049;-44
2022/07/17 10:56:41;;;;;;;5.28;1.40;;;27.30;57.60;;;;;;5033661;28;20056;-43
2022/07/17 10:59:09;;;;;;;4.95;1.25;;;27.20;57.80;;;;;;5027960;28;20045;-43
2022/07/17 11:01:36;;;;;;;3.60;1.10;;;27.30;58.40;;;;;;5027385;28;20049;-42
2022/07/17 11:04:04;;;;;;;4.35;1.33;;;27.30;58.30;;;;;;5031455;28;20052;-43
2022/07/17 11:06:32;;;;;;;5.25;1.35;;;27.40;58.40;;;;;;5034021;28;20127;-43
2022/07/17 11:09:00;;;;;;;4.03;1.60;;;27.30;57.90;;;;;;5033409;28;20131;-43
2022/07/17 11:11:36;;;;;;;3.13;1.20;;;27.40;57.50;;;;;;5031505;28;20056;-42
2022/07/17 11:14:14;;;;;;;6.10;1.92;;;27.60;57.50;;;;;;5032471;28;20055;-42
2022/07/17 11:16:45;;;;;;;6.20;1.40;;;27.60;57.70;;;;;;5032218;28;20129;-44
2022/07/17 11:19:13;;;;;;;3.20;1.23;;;27.50;57.00;;;;;;5033547;28;20050;-43
2022/07/17 11:21:46;;;;;;;5.43;1.38;;;27.30;57.10;;;;;;5032578;28;20060;-44
2022/07/17 11:24:13;;;;;;;3.92;1.25;;;27.40;57.10;;;;;;5032821;28;20138;-44
2022/07/17 11:26:40;;;;;;;4.20;1.45;;;27.30;56.60;;;;;;5032621;28;20486;-43
2022/07/17 11:29:06;;;;;;;4.43;1.52;;;27.40;56.80;;;;;;5032831;28;20081;-42
2022/07/17 11:31:35;;;;;;;4.88;1.48;;;27.50;56.70;;;;;;5032179;28;20099;-43
2022/07/17 11:34:08;;;;;;;3.97;1.58;;;27.50;55.70;;;;;;5029060;28;20103;-43
2022/07/17 11:36:36;;;;;;;4.65;1.33;;;27.50;55.90;;;;;;5033955;28;20410;-43
2022/07/17 11:39:06;;;;;;;3.50;1.38;;;27.60;57.20;;;;;;5030838;28;20132;-44
2022/07/17 11:41:34;;;;;;;4.28;1.50;;;27.90;56.10;;;;;;5034049;28;20050;-43
2022/07/17 11:44:01;;;;;;;3.42;1.50;;;28.10;54.90;;;;;;5030274;28;20129;-43
2022/07/17 11:46:28;;;;;;;4.90;1.45;;;28.20;55.10;;;;;;5030141;28;20513;-43
2022/07/17 11:48:56;;;;;;;4.25;1.40;;;28.30;55.70;;;;;;5032887;28;20053;-43
2022/07/17 11:51:34;;;;;;;2.35;1.30;;;28.50;56.70;;;;;;5032443;28;20187;-43
2022/07/17 11:54:04;;;;;;;3.28;1.30;;;28.70;55.90;;;;;;5033227;28;20045;-44
2022/07/17 11:56:31;;;;;;;3.45;1.42;;;28.80;54.30;;;;;;5032486;28;20048;-44
2022/07/17 11:58:58;;;;;;;4.78;1.60;;;28.80;55.20;;;;;;5032413;28;20140;-44
2022/07/17 12:01:25;;;;;;;3.53;1.70;;;28.90;54.60;;;;;;5031961;28;20049;-44
2022/07/17 12:03:58;;;;;;;3.63;1.70;;;29.00;54.50;;;;;;5031849;28;20057;-44
2022/07/17 12:06:26;;;;;;;6.13;1.63;;;29.20;54.10;;;;;;5032567;28;20045;-45
2022/07/17 12:08:53;;;;;;;4.55;2.05;;;29.30;53.60;;;;;;5029127;28;20047;-42
2022/07/17 12:11:22;;;;;;;3.60;1.70;;;29.40;53.30;;;;;;5033359;28;20136;-43
2022/07/17 12:13:48;;;;;;;4.05;1.73;;;29.50;53.90;;;;;;5029640;28;20413;-43
2022/07/17 12:16:37;;;;;;;4.57;1.50;;;29.60;53.50;;;;;;5032911;28;20103;-44
2022/07/17 12:19:08;;;;;;;2.75;1.60;;;29.60;53.50;;;;;;5028158;28;20053;-43
2022/07/17 12:21:46;;;;;;;5.05;2.03;;;29.50;52.50;;;;;;5022737;28;20100;-45
2022/07/17 12:24:19;;;;;;;3.63;1.77;;;29.40;52.30;;;;;;5021734;28;20140;-43
2022/07/17 12:26:46;;;;;;;4.82;1.75;;;29.50;52.30;;;;;;5030757;28;20133;-44
2022/07/17 12:29:12;;;;;;;4.10;1.73;;;29.50;52.00;;;;;;5031070;28;20049;-43
2022/07/17 12:31:39;;;;;;;6.07;1.63;;;29.50;51.60;;;;;;5032390;28;20485;-45
2022/07/17 12:34:07;;;;;;;3.88;1.92;;;29.50;51.20;;;;;;5030558;28;20498;-43
2022/07/17 12:36:34;;;;;;;4.88;1.98;;;29.60;52.30;;;;;;5030518;28;20208;-44
2022/07/17 12:39:01;;;;;;;5.93;2.30;;;29.60;52.10;;;;;;5030919;28;20555;-43
2022/07/17 12:41:28;;;;;;;3.92;2.03;;;29.70;51.60;;;;;;5032306;28;20132;-44
2022/07/17 12:43:54;;;;;;;5.03;2.10;;;29.80;51.00;;;;;;5030814;28;20125;-43
2022/07/17 12:46:21;;;;;;;4.97;2.17;;;29.80;49.90;;;;;;5030642;28;20115;-44
2022/07/17 12:48:48;;;;;;;10.88;2.67;;;29.90;50.50;;;;;;5031285;28;20045;-45